MMTM/TAM METAR and TAF weather

Enter ICAO airport designator
Station Type Date Time Source
MMTM METAR 2020/04/10 18:55 UTC NOAA

MMTM 101855Z 03008KT 6SM SCT015 BKN200 29/24 A2988 RMK 8/108 HZ


Station Type Date Time Source
MMTM Decoded METAR 2020/04/10 18:55 UTC NOAA

Tampico / Gen Fj Mina, Mexico (MMTM) 22-17N 097-52W
Apr 10, 2020 - 02:55 PM EDT / 2020.04.10 1855 UTC
Wind: from the NNE (030 degrees) at 9 MPH (8 KT):0
Visibility: 6 mile(s):0
Sky conditions: mostly cloudy
Temperature: 84 F (29 C)
Dew Point: 75 F (24 C)
Relative Humidity: 74%
Pressure (altimeter): 29.88 in. Hg (1011 hPa)
ob: MMTM 101855Z 03008KT 6SM SCT015 BKN200 29/24 A2988 RMK 8/108 HZ
cycle: 19

Station Type Date Time Source
MMTM TAF 2020/04/10 18:30 UTC NOAA

TAF MMTM 101623Z 1018/1118 04010KT 5SM HZ BKN200
BECMG 1020/1021 09012KT SCT015 SCT200
FM110300 06005KT 4SM HZ SCT010
BECMG 1109/1110 3SM BR HZ BKN010
TEMPO 1111/1114 2SM -RA BR OVC006
FM111600 13006KT 3SM BR HZ OVC010

Example: see airport list